sensor_id;sensor_type;location;lat;lon;timestamp;P1;durP1;ratioP1;P2;durP2;ratioP2
35693;SDS011;21812;55.536;37.664;2023-05-29T00:00:56;8.73;;;4.30;;
35693;SDS011;21812;55.536;37.664;2023-05-29T00:03:22;15.65;;;3.72;;
35693;SDS011;21812;55.536;37.664;2023-05-29T00:05:48;6.13;;;3.58;;
35693;SDS011;21812;55.536;37.664;2023-05-29T00:08:14;8.65;;;4.50;;
35693;SDS011;21812;55.536;37.664;2023-05-29T00:10:40;6.15;;;3.17;;
35693;SDS011;21812;55.536;37.664;2023-05-29T00:13:06;11.88;;;4.88;;
35693;SDS011;21812;55.536;37.664;2023-05-29T00:15:32;9.15;;;4.25;;
35693;SDS011;21812;55.536;37.664;2023-05-29T00:17:58;6.47;;;3.28;;
35693;SDS011;21812;55.536;37.664;2023-05-29T00:20:23;4.13;;;2.30;;
35693;SDS011;21812;55.536;37.664;2023-05-29T00:22:49;5.03;;;2.60;;
35693;SDS011;21812;55.536;37.664;2023-05-29T00:25:15;7.30;;;3.10;;
35693;SDS011;21812;55.536;37.664;2023-05-29T00:27:41;9.40;;;3.20;;
35693;SDS011;21812;55.536;37.664;2023-05-29T00:30:06;7.88;;;3.72;;
35693;SDS011;21812;55.536;37.664;2023-05-29T00:32:34;10.85;;;3.63;;
35693;SDS011;21812;55.536;37.664;2023-05-29T00:35:01;8.23;;;3.83;;
35693;SDS011;21812;55.536;37.664;2023-05-29T00:37:30;8.70;;;3.80;;
35693;SDS011;21812;55.536;37.664;2023-05-29T00:39:56;6.43;;;3.05;;
35693;SDS011;21812;55.536;37.664;2023-05-29T00:42:21;8.65;;;4.00;;
35693;SDS011;21812;55.536;37.664;2023-05-29T00:44:47;5.88;;;3.47;;
35693;SDS011;21812;55.536;37.664;2023-05-29T00:47:13;11.85;;;3.13;;
35693;SDS011;21812;55.536;37.664;2023-05-29T00:49:39;3.80;;;2.67;;
35693;SDS011;21812;55.536;37.664;2023-05-29T00:52:05;4.45;;;2.33;;
35693;SDS011;21812;55.536;37.664;2023-05-29T00:54:32;5.97;;;2.20;;
35693;SDS011;21812;55.536;37.664;2023-05-29T00:56:59;4.43;;;2.58;;
35693;SDS011;21812;55.536;37.664;2023-05-29T00:59:27;6.43;;;2.80;;
35693;SDS011;21812;55.536;37.664;2023-05-29T01:01:55;5.93;;;2.95;;
35693;SDS011;21812;55.536;37.664;2023-05-29T01:04:23;6.15;;;3.15;;
35693;SDS011;21812;55.536;37.664;2023-05-29T01:06:50;5.20;;;2.60;;
35693;SDS011;21812;55.536;37.664;2023-05-29T01:09:17;9.20;;;2.67;;
35693;SDS011;21812;55.536;37.664;2023-05-29T01:14:25;4.75;;;2.75;;
35693;SDS011;21812;55.536;37.664;2023-05-29T01:17:11;8.13;;;3.05;;
35693;SDS011;21812;55.536;37.664;2023-05-29T01:35:10;5.55;;;2.97;;
35693;SDS011;21812;55.536;37.664;2023-05-29T01:37:36;6.57;;;2.97;;
35693;SDS011;21812;55.536;37.664;2023-05-29T01:40:02;5.05;;;2.78;;
35693;SDS011;21812;55.536;37.664;2023-05-29T01:42:30;4.03;;;2.80;;
35693;SDS011;21812;55.536;37.664;2023-05-29T01:44:57;3.80;;;2.20;;
35693;SDS011;21812;55.536;37.664;2023-05-29T01:47:23;3.95;;;2.00;;
35693;SDS011;21812;55.536;37.664;2023-05-29T01:49:50;7.10;;;2.80;;
35693;SDS011;21812;55.536;37.664;2023-05-29T01:52:17;3.88;;;2.65;;
35693;SDS011;21812;55.536;37.664;2023-05-29T01:54:43;5.47;;;2.03;;
35693;SDS011;21812;55.536;37.664;2023-05-29T01:57:10;4.35;;;2.03;;
35693;SDS011;21812;55.536;37.664;2023-05-29T01:59:37;3.95;;;2.17;;
35693;SDS011;21812;55.536;37.664;2023-05-29T02:02:09;6.72;;;2.40;;
35693;SDS011;21812;55.536;37.664;2023-05-29T02:07:03;5.35;;;2.45;;
35693;SDS011;21812;55.536;37.664;2023-05-29T02:09:29;3.50;;;2.55;;
35693;SDS011;21812;55.536;37.664;2023-05-29T02:11:56;4.65;;;2.33;;
35693;SDS011;21812;55.536;37.664;2023-05-29T02:14:21;4.07;;;2.83;;
35693;SDS011;21812;55.536;37.664;2023-05-29T02:16:50;5.93;;;2.38;;
35693;SDS011;21812;55.536;37.664;2023-05-29T02:19:20;3.75;;;2.47;;
35693;SDS011;21812;55.536;37.664;2023-05-29T02:21:46;6.35;;;2.33;;
35693;SDS011;21812;55.536;37.664;2023-05-29T02:24:13;7.13;;;2.90;;
35693;SDS011;21812;55.536;37.664;2023-05-29T02:26:39;3.97;;;2.35;;
35693;SDS011;21812;55.536;37.664;2023-05-29T02:29:05;7.03;;;2.90;;
35693;SDS011;21812;55.536;37.664;2023-05-29T02:31:31;7.18;;;3.30;;
35693;SDS011;21812;55.536;37.664;2023-05-29T02:33:56;8.02;;;3.00;;
35693;SDS011;21812;55.536;37.664;2023-05-29T02:36:22;7.70;;;2.67;;
35693;SDS011;21812;55.536;37.664;2023-05-29T02:38:50;7.57;;;3.20;;
35693;SDS011;21812;55.536;37.664;2023-05-29T02:41:16;3.80;;;2.47;;
35693;SDS011;21812;55.536;37.664;2023-05-29T02:43:42;5.28;;;2.70;;
35693;SDS011;21812;55.536;37.664;2023-05-29T02:46:08;6.32;;;2.70;;
35693;SDS011;21812;55.536;37.664;2023-05-29T02:48:34;5.22;;;2.38;;
35693;SDS011;21812;55.536;37.664;2023-05-29T02:50:59;2.78;;;1.80;;
35693;SDS011;21812;55.536;37.664;2023-05-29T02:53:25;4.50;;;2.65;;
35693;SDS011;21812;55.536;37.664;2023-05-29T02:55:51;7.75;;;2.65;;
35693;SDS011;21812;55.536;37.664;2023-05-29T02:58:16;3.22;;;2.00;;
35693;SDS011;21812;55.536;37.664;2023-05-29T03:00:42;5.05;;;2.30;;
35693;SDS011;21812;55.536;37.664;2023-05-29T03:03:08;3.92;;;2.00;;
35693;SDS011;21812;55.536;37.664;2023-05-29T03:05:37;6.22;;;3.45;;
35693;SDS011;21812;55.536;37.664;2023-05-29T03:08:03;6.90;;;2.75;;
35693;SDS011;21812;55.536;37.664;2023-05-29T03:10:29;6.00;;;3.20;;
35693;SDS011;21812;55.536;37.664;2023-05-29T03:12:54;4.40;;;2.40;;
35693;SDS011;21812;55.536;37.664;2023-05-29T03:15:21;1.85;;;1.60;;
35693;SDS011;21812;55.536;37.664;2023-05-29T03:17:47;7.70;;;3.10;;
35693;SDS011;21812;55.536;37.664;2023-05-29T03:20:16;8.77;;;2.85;;
35693;SDS011;21812;55.536;37.664;2023-05-29T03:22:42;4.45;;;2.72;;
35693;SDS011;21812;55.536;37.664;2023-05-29T03:25:08;9.55;;;3.05;;
35693;SDS011;21812;55.536;37.664;2023-05-29T03:27:34;6.35;;;2.55;;
35693;SDS011;21812;55.536;37.664;2023-05-29T03:30:12;4.85;;;2.10;;
35693;SDS011;21812;55.536;37.664;2023-05-29T03:32:38;6.05;;;2.28;;
35693;SDS011;21812;55.536;37.664;2023-05-29T03:35:04;11.65;;;3.45;;
35693;SDS011;21812;55.536;37.664;2023-05-29T03:37:31;4.80;;;2.20;;
35693;SDS011;21812;55.536;37.664;2023-05-29T03:39:57;6.50;;;2.08;;
35693;SDS011;21812;55.536;37.664;2023-05-29T03:42:23;6.13;;;2.00;;
35693;SDS011;21812;55.536;37.664;2023-05-29T03:44:51;13.52;;;2.42;;
35693;SDS011;21812;55.536;37.664;2023-05-29T03:47:16;4.85;;;2.13;;
35693;SDS011;21812;55.536;37.664;2023-05-29T03:49:43;4.53;;;2.58;;
35693;SDS011;21812;55.536;37.664;2023-05-29T03:52:09;4.13;;;1.80;;
35693;SDS011;21812;55.536;37.664;2023-05-29T03:54:35;4.15;;;1.65;;
35693;SDS011;21812;55.536;37.664;2023-05-29T03:57:03;5.90;;;2.00;;
35693;SDS011;21812;55.536;37.664;2023-05-29T03:59:28;4.00;;;1.80;;
35693;SDS011;21812;55.536;37.664;2023-05-29T04:01:54;3.88;;;1.60;;
35693;SDS011;21812;55.536;37.664;2023-05-29T04:04:20;5.30;;;2.13;;
35693;SDS011;21812;55.536;37.664;2023-05-29T04:06:46;10.98;;;2.30;;
35693;SDS011;21812;55.536;37.664;2023-05-29T04:09:11;4.25;;;1.60;;
35693;SDS011;21812;55.536;37.664;2023-05-29T04:11:37;5.43;;;1.75;;
35693;SDS011;21812;55.536;37.664;2023-05-29T04:14:05;7.40;;;2.15;;
35693;SDS011;21812;55.536;37.664;2023-05-29T04:16:32;5.07;;;1.73;;
35693;SDS011;21812;55.536;37.664;2023-05-29T04:18:59;3.08;;;1.60;;
35693;SDS011;21812;55.536;37.664;2023-05-29T04:21:28;3.22;;;1.75;;
35693;SDS011;21812;55.536;37.664;2023-05-29T04:23:54;5.30;;;2.03;;
35693;SDS011;21812;55.536;37.664;2023-05-29T04:26:21;8.10;;;2.05;;
35693;SDS011;21812;55.536;37.664;2023-05-29T04:28:51;4.78;;;1.77;;
35693;SDS011;21812;55.536;37.664;2023-05-29T04:31:24;4.65;;;1.92;;
35693;SDS011;21812;55.536;37.664;2023-05-29T04:33:53;2.55;;;1.65;;
35693;SDS011;21812;55.536;37.664;2023-05-29T04:36:23;6.07;;;2.22;;
35693;SDS011;21812;55.536;37.664;2023-05-29T04:38:54;4.32;;;1.58;;
35693;SDS011;21812;55.536;37.664;2023-05-29T04:41:22;6.53;;;1.52;;
35693;SDS011;21812;55.536;37.664;2023-05-29T04:43:51;5.50;;;1.67;;
35693;SDS011;21812;55.536;37.664;2023-05-29T04:46:18;10.05;;;4.35;;
35693;SDS011;21812;55.536;37.664;2023-05-29T04:48:44;9.45;;;2.33;;
35693;SDS011;21812;55.536;37.664;2023-05-29T04:51:10;4.53;;;1.65;;
35693;SDS011;21812;55.536;37.664;2023-05-29T04:53:40;2.85;;;1.45;;
35693;SDS011;21812;55.536;37.664;2023-05-29T04:56:07;2.55;;;1.35;;
35693;SDS011;21812;55.536;37.664;2023-05-29T04:58:35;3.15;;;1.40;;
35693;SDS011;21812;55.536;37.664;2023-05-29T05:01:03;5.47;;;2.20;;
35693;SDS011;21812;55.536;37.664;2023-05-29T05:03:31;2.17;;;1.40;;
35693;SDS011;21812;55.536;37.664;2023-05-29T05:05:59;5.88;;;1.85;;
35693;SDS011;21812;55.536;37.664;2023-05-29T05:08:30;4.35;;;1.50;;
35693;SDS011;21812;55.536;37.664;2023-05-29T05:10:59;3.85;;;1.50;;
35693;SDS011;21812;55.536;37.664;2023-05-29T05:13:26;5.82;;;1.90;;
35693;SDS011;21812;55.536;37.664;2023-05-29T05:15:52;5.97;;;2.15;;
35693;SDS011;21812;55.536;37.664;2023-05-29T05:18:19;3.17;;;1.30;;
35693;SDS011;21812;55.536;37.664;2023-05-29T05:23:18;9.38;;;1.83;;
35693;SDS011;21812;55.536;37.664;2023-05-29T05:25:44;11.00;;;2.47;;
35693;SDS011;21812;55.536;37.664;2023-05-29T05:28:10;3.88;;;1.17;;
35693;SDS011;21812;55.536;37.664;2023-05-29T05:30:35;3.90;;;1.42;;
35693;SDS011;21812;55.536;37.664;2023-05-29T05:33:01;7.93;;;1.50;;
35693;SDS011;21812;55.536;37.664;2023-05-29T05:35:27;4.20;;;1.65;;
35693;SDS011;21812;55.536;37.664;2023-05-29T05:37:53;4.63;;;1.30;;
35693;SDS011;21812;55.536;37.664;2023-05-29T05:40:20;6.57;;;1.65;;
35693;SDS011;21812;55.536;37.664;2023-05-29T05:42:55;3.35;;;1.17;;
35693;SDS011;21812;55.536;37.664;2023-05-29T05:45:32;4.90;;;1.25;;
35693;SDS011;21812;55.536;37.664;2023-05-29T05:47:58;5.35;;;1.05;;
35693;SDS011;21812;55.536;37.664;2023-05-29T05:50:24;14.05;;;1.25;;
35693;SDS011;21812;55.536;37.664;2023-05-29T05:52:51;6.10;;;1.45;;
35693;SDS011;21812;55.536;37.664;2023-05-29T05:55:17;0.80;;;0.40;;
35693;SDS011;21812;55.536;37.664;2023-05-29T05:57:42;6.00;;;1.20;;
35693;SDS011;21812;55.536;37.664;2023-05-29T06:00:08;1.20;;;0.73;;
35693;SDS011;21812;55.536;37.664;2023-05-29T06:02:42;1.00;;;0.60;;
35693;SDS011;21812;55.536;37.664;2023-05-29T06:05:12;0.70;;;0.50;;
35693;SDS011;21812;55.536;37.664;2023-05-29T06:07:37;0.95;;;0.57;;
35693;SDS011;21812;55.536;37.664;2023-05-29T06:10:04;1.23;;;0.65;;
35693;SDS011;21812;55.536;37.664;2023-05-29T06:12:30;1.15;;;0.68;;
35693;SDS011;21812;55.536;37.664;2023-05-29T06:15:06;2.60;;;0.50;;
35693;SDS011;21812;55.536;37.664;2023-05-29T06:17:33;2.00;;;0.50;;
35693;SDS011;21812;55.536;37.664;2023-05-29T06:20:02;5.13;;;0.57;;
35693;SDS011;21812;55.536;37.664;2023-05-29T06:22:30;3.58;;;0.80;;
35693;SDS011;21812;55.536;37.664;2023-05-29T06:24:56;0.90;;;0.40;;
35693;SDS011;21812;55.536;37.664;2023-05-29T06:27:22;3.95;;;0.65;;
35693;SDS011;21812;55.536;37.664;2023-05-29T06:29:51;1.58;;;0.80;;
35693;SDS011;21812;55.536;37.664;2023-05-29T06:32:17;3.05;;;0.95;;
35693;SDS011;21812;55.536;37.664;2023-05-29T06:34:43;2.60;;;0.80;;
35693;SDS011;21812;55.536;37.664;2023-05-29T06:37:08;4.38;;;1.15;;
35693;SDS011;21812;55.536;37.664;2023-05-29T06:39:34;2.65;;;1.00;;
35693;SDS011;21812;55.536;37.664;2023-05-29T06:42:00;1.83;;;0.93;;
35693;SDS011;21812;55.536;37.664;2023-05-29T06:44:26;3.90;;;1.15;;
35693;SDS011;21812;55.536;37.664;2023-05-29T06:46:53;1.27;;;0.68;;
35693;SDS011;21812;55.536;37.664;2023-05-29T06:49:19;1.30;;;0.60;;
35693;SDS011;21812;55.536;37.664;2023-05-29T06:51:45;1.77;;;1.30;;
35693;SDS011;21812;55.536;37.664;2023-05-29T06:54:22;1.55;;;0.95;;
35693;SDS011;21812;55.536;37.664;2023-05-29T06:56:48;2.90;;;1.30;;
35693;SDS011;21812;55.536;37.664;2023-05-29T06:59:13;1.92;;;0.70;;
35693;SDS011;21812;55.536;37.664;2023-05-29T07:01:56;1.50;;;1.00;;
35693;SDS011;21812;55.536;37.664;2023-05-29T07:04:22;3.10;;;0.50;;
35693;SDS011;21812;55.536;37.664;2023-05-29T07:06:48;0.75;;;0.75;;
35693;SDS011;21812;55.536;37.664;2023-05-29T07:09:14;1.85;;;0.70;;
35693;SDS011;21812;55.536;37.664;2023-05-29T07:11:40;2.83;;;0.90;;
35693;SDS011;21812;55.536;37.664;2023-05-29T07:14:05;1.25;;;0.52;;
35693;SDS011;21812;55.536;37.664;2023-05-29T07:16:33;1.88;;;0.90;;
35693;SDS011;21812;55.536;37.664;2023-05-29T07:19:02;3.70;;;0.57;;
35693;SDS011;21812;55.536;37.664;2023-05-29T07:21:33;2.35;;;1.08;;
35693;SDS011;21812;55.536;37.664;2023-05-29T07:23:59;2.08;;;1.00;;
35693;SDS011;21812;55.536;37.664;2023-05-29T07:26:25;3.08;;;1.10;;
35693;SDS011;21812;55.536;37.664;2023-05-29T07:28:51;3.13;;;1.13;;
35693;SDS011;21812;55.536;37.664;2023-05-29T07:31:17;1.13;;;0.60;;
35693;SDS011;21812;55.536;37.664;2023-05-29T07:33:45;2.05;;;0.98;;
35693;SDS011;21812;55.536;37.664;2023-05-29T07:36:15;1.63;;;0.80;;
35693;SDS011;21812;55.536;37.664;2023-05-29T07:38:41;9.90;;;0.90;;
35693;SDS011;21812;55.536;37.664;2023-05-29T07:41:07;2.08;;;0.90;;
35693;SDS011;21812;55.536;37.664;2023-05-29T07:43:36;1.98;;;0.90;;
35693;SDS011;21812;55.536;37.664;2023-05-29T07:46:05;2.47;;;0.63;;
35693;SDS011;21812;55.536;37.664;2023-05-29T07:48:31;1.30;;;0.93;;
35693;SDS011;21812;55.536;37.664;2023-05-29T07:50:58;1.55;;;0.80;;
35693;SDS011;21812;55.536;37.664;2023-05-29T07:53:27;2.92;;;1.15;;
35693;SDS011;21812;55.536;37.664;2023-05-29T07:55:52;1.85;;;0.52;;
35693;SDS011;21812;55.536;37.664;2023-05-29T07:58:19;0.93;;;0.57;;
35693;SDS011;21812;55.536;37.664;2023-05-29T08:00:46;1.67;;;0.77;;
35693;SDS011;21812;55.536;37.664;2023-05-29T08:03:13;1.50;;;0.70;;
35693;SDS011;21812;55.536;37.664;2023-05-29T08:06:17;2.17;;;0.70;;
35693;SDS011;21812;55.536;37.664;2023-05-29T08:08:44;5.38;;;1.08;;
35693;SDS011;21812;55.536;37.664;2023-05-29T08:11:10;1.70;;;0.80;;
35693;SDS011;21812;55.536;37.664;2023-05-29T08:13:37;3.20;;;1.20;;
35693;SDS011;21812;55.536;37.664;2023-05-29T08:16:03;1.63;;;0.90;;
35693;SDS011;21812;55.536;37.664;2023-05-29T08:18:29;4.75;;;0.88;;
35693;SDS011;21812;55.536;37.664;2023-05-29T08:20:56;2.55;;;0.98;;
35693;SDS011;21812;55.536;37.664;2023-05-29T08:23:22;1.98;;;0.60;;
35693;SDS011;21812;55.536;37.664;2023-05-29T08:25:48;4.10;;;1.70;;
35693;SDS011;21812;55.536;37.664;2023-05-29T08:28:14;7.68;;;1.58;;
35693;SDS011;21812;55.536;37.664;2023-05-29T08:30:40;3.10;;;0.93;;
35693;SDS011;21812;55.536;37.664;2023-05-29T08:33:06;1.38;;;0.75;;
35693;SDS011;21812;55.536;37.664;2023-05-29T08:35:32;2.97;;;0.90;;
35693;SDS011;21812;55.536;37.664;2023-05-29T08:37:58;4.32;;;1.63;;
35693;SDS011;21812;55.536;37.664;2023-05-29T08:40:24;2.85;;;0.70;;
35693;SDS011;21812;55.536;37.664;2023-05-29T08:45:43;5.10;;;0.85;;
35693;SDS011;21812;55.536;37.664;2023-05-29T08:48:10;2.95;;;1.00;;
35693;SDS011;21812;55.536;37.664;2023-05-29T08:50:43;1.83;;;0.82;;
35693;SDS011;21812;55.536;37.664;2023-05-29T08:53:14;5.85;;;0.70;;
35693;SDS011;21812;55.536;37.664;2023-05-29T08:55:40;2.13;;;0.70;;
35693;SDS011;21812;55.536;37.664;2023-05-29T08:58:06;1.38;;;0.80;;
35693;SDS011;21812;55.536;37.664;2023-05-29T09:00:33;5.45;;;0.75;;
35693;SDS011;21812;55.536;37.664;2023-05-29T09:02:59;2.78;;;0.70;;
35693;SDS011;21812;55.536;37.664;2023-05-29T09:05:26;4.00;;;0.65;;
35693;SDS011;21812;55.536;37.664;2023-05-29T09:07:53;3.80;;;1.10;;
35693;SDS011;21812;55.536;37.664;2023-05-29T09:10:19;1.02;;;0.77;;
35693;SDS011;21812;55.536;37.664;2023-05-29T09:12:46;1.27;;;0.70;;
35693;SDS011;21812;55.536;37.664;2023-05-29T09:15:18;13.35;;;1.30;;
35693;SDS011;21812;55.536;37.664;2023-05-29T09:17:55;3.47;;;0.88;;
35693;SDS011;21812;55.536;37.664;2023-05-29T09:20:23;1.48;;;0.88;;
35693;SDS011;21812;55.536;37.664;2023-05-29T09:22:56;2.45;;;0.82;;
35693;SDS011;21812;55.536;37.664;2023-05-29T09:25:24;1.40;;;0.70;;
35693;SDS011;21812;55.536;37.664;2023-05-29T09:27:56;1.80;;;0.63;;
35693;SDS011;21812;55.536;37.664;2023-05-29T09:34:18;3.83;;;1.00;;
35693;SDS011;21812;55.536;37.664;2023-05-29T09:36:44;5.32;;;1.02;;
35693;SDS011;21812;55.536;37.664;2023-05-29T09:39:09;1.45;;;0.90;;
35693;SDS011;21812;55.536;37.664;2023-05-29T09:41:43;1.48;;;0.70;;
35693;SDS011;21812;55.536;37.664;2023-05-29T09:44:13;2.28;;;1.00;;
35693;SDS011;21812;55.536;37.664;2023-05-29T09:46:42;1.48;;;0.90;;
35693;SDS011;21812;55.536;37.664;2023-05-29T09:49:10;3.22;;;0.90;;
35693;SDS011;21812;55.536;37.664;2023-05-29T09:51:37;2.20;;;1.10;;
35693;SDS011;21812;55.536;37.664;2023-05-29T09:54:16;3.00;;;1.17;;
35693;SDS011;21812;55.536;37.664;2023-05-29T09:56:44;2.38;;;0.70;;
35693;SDS011;21812;55.536;37.664;2023-05-29T09:59:11;2.88;;;1.05;;
35693;SDS011;21812;55.536;37.664;2023-05-29T10:01:42;5.07;;;1.42;;
35693;SDS011;21812;55.536;37.664;2023-05-29T10:04:11;1.85;;;0.88;;
35693;SDS011;21812;55.536;37.664;2023-05-29T10:06:40;2.85;;;1.00;;
35693;SDS011;21812;55.536;37.664;2023-05-29T10:09:10;3.80;;;0.80;;
35693;SDS011;21812;55.536;37.664;2023-05-29T10:11:40;3.03;;;0.80;;
35693;SDS011;21812;55.536;37.664;2023-05-29T10:14:09;5.57;;;1.15;;
35693;SDS011;21812;55.536;37.664;2023-05-29T10:16:40;0.95;;;0.65;;
35693;SDS011;21812;55.536;37.664;2023-05-29T10:19:12;1.23;;;0.70;;
35693;SDS011;21812;55.536;37.664;2023-05-29T10:21:41;2.58;;;1.10;;
35693;SDS011;21812;55.536;37.664;2023-05-29T10:24:09;6.90;;;1.40;;
35693;SDS011;21812;55.536;37.664;2023-05-29T10:26:38;10.23;;;4.80;;
35693;SDS011;21812;55.536;37.664;2023-05-29T10:40:07;14.50;;;3.03;;
35693;SDS011;21812;55.536;37.664;2023-05-29T10:42:42;4.32;;;0.98;;
35693;SDS011;21812;55.536;37.664;2023-05-29T10:45:48;3.38;;;1.48;;
35693;SDS011;21812;55.536;37.664;2023-05-29T10:50:36;5.35;;;1.27;;
35693;SDS011;21812;55.536;37.664;2023-05-29T10:53:07;1.90;;;0.90;;
35693;SDS011;21812;55.536;37.664;2023-05-29T10:55:37;1.63;;;0.85;;
35693;SDS011;21812;55.536;37.664;2023-05-29T10:58:07;2.42;;;1.02;;
35693;SDS011;21812;55.536;37.664;2023-05-29T11:00:39;1.83;;;0.88;;
35693;SDS011;21812;55.536;37.664;2023-05-29T11:03:08;2.75;;;1.10;;
35693;SDS011;21812;55.536;37.664;2023-05-29T11:05:55;0.90;;;0.60;;
35693;SDS011;21812;55.536;37.664;2023-05-29T11:09:00;1.13;;;0.80;;
35693;SDS011;21812;55.536;37.664;2023-05-29T11:11:32;2.67;;;1.05;;
35693;SDS011;21812;55.536;37.664;2023-05-29T11:14:10;1.70;;;0.95;;
35693;SDS011;21812;55.536;37.664;2023-05-29T11:16:36;1.25;;;0.63;;
35693;SDS011;21812;55.536;37.664;2023-05-29T11:19:06;4.88;;;0.95;;
35693;SDS011;21812;55.536;37.664;2023-05-29T11:24:24;3.55;;;1.10;;
35693;SDS011;21812;55.536;37.664;2023-05-29T11:26:51;1.45;;;0.70;;
35693;SDS011;21812;55.536;37.664;2023-05-29T11:29:22;2.55;;;1.25;;
35693;SDS011;21812;55.536;37.664;2023-05-29T11:32:02;1.95;;;0.93;;
35693;SDS011;21812;55.536;37.664;2023-05-29T11:34:35;1.88;;;1.17;;
35693;SDS011;21812;55.536;37.664;2023-05-29T11:37:04;4.25;;;1.77;;
35693;SDS011;21812;55.536;37.664;2023-05-29T11:39:30;2.28;;;1.13;;
35693;SDS011;21812;55.536;37.664;2023-05-29T11:41:59;2.30;;;1.25;;
35693;SDS011;21812;55.536;37.664;2023-05-29T11:44:25;3.67;;;0.82;;
35693;SDS011;21812;55.536;37.664;2023-05-29T11:47:01;4.45;;;1.30;;
35693;SDS011;21812;55.536;37.664;2023-05-29T11:49:31;2.67;;;1.33;;
35693;SDS011;21812;55.536;37.664;2023-05-29T11:54:32;1.95;;;1.02;;
35693;SDS011;21812;55.536;37.664;2023-05-29T11:56:59;4.53;;;1.40;;
35693;SDS011;21812;55.536;37.664;2023-05-29T11:59:28;2.03;;;1.27;;
35693;SDS011;21812;55.536;37.664;2023-05-29T12:01:55;2.70;;;0.90;;
35693;SDS011;21812;55.536;37.664;2023-05-29T12:04:21;2.25;;;1.00;;
35693;SDS011;21812;55.536;37.664;2023-05-29T12:06:47;2.22;;;1.10;;
35693;SDS011;21812;55.536;37.664;2023-05-29T12:09:28;4.57;;;1.10;;
35693;SDS011;21812;55.536;37.664;2023-05-29T12:12:02;5.78;;;1.00;;
35693;SDS011;21812;55.536;37.664;2023-05-29T12:14:28;3.72;;;1.45;;
35693;SDS011;21812;55.536;37.664;2023-05-29T12:16:54;2.90;;;1.25;;
35693;SDS011;21812;55.536;37.664;2023-05-29T12:19:20;3.90;;;0.93;;
35693;SDS011;21812;55.536;37.664;2023-05-29T12:21:46;1.73;;;0.90;;
35693;SDS011;21812;55.536;37.664;2023-05-29T12:24:12;3.05;;;0.88;;
35693;SDS011;21812;55.536;37.664;2023-05-29T12:26:38;4.68;;;1.05;;
35693;SDS011;21812;55.536;37.664;2023-05-29T12:29:05;2.35;;;0.80;;
35693;SDS011;21812;55.536;37.664;2023-05-29T12:31:31;2.25;;;1.20;;
35693;SDS011;21812;55.536;37.664;2023-05-29T12:34:02;3.53;;;1.10;;
35693;SDS011;21812;55.536;37.664;2023-05-29T12:36:33;4.35;;;1.08;;
35693;SDS011;21812;55.536;37.664;2023-05-29T12:38:59;3.10;;;0.90;;
35693;SDS011;21812;55.536;37.664;2023-05-29T12:41:27;1.70;;;0.70;;
35693;SDS011;21812;55.536;37.664;2023-05-29T12:43:54;2.38;;;0.70;;
35693;SDS011;21812;55.536;37.664;2023-05-29T12:46:26;3.55;;;0.80;;
35693;SDS011;21812;55.536;37.664;2023-05-29T12:48:53;2.70;;;0.60;;
35693;SDS011;21812;55.536;37.664;2023-05-29T12:51:24;2.67;;;0.80;;
35693;SDS011;21812;55.536;37.664;2023-05-29T12:53:50;24.33;;;2.30;;
35693;SDS011;21812;55.536;37.664;2023-05-29T12:56:19;1.48;;;0.65;;
35693;SDS011;21812;55.536;37.664;2023-05-29T12:58:44;1.02;;;0.93;;
35693;SDS011;21812;55.536;37.664;2023-05-29T13:01:13;1.08;;;0.80;;
35693;SDS011;21812;55.536;37.664;2023-05-29T13:03:40;8.32;;;0.80;;
35693;SDS011;21812;55.536;37.664;2023-05-29T13:06:06;1.00;;;0.90;;
35693;SDS011;21812;55.536;37.664;2023-05-29T13:08:32;5.22;;;1.83;;
35693;SDS011;21812;55.536;37.664;2023-05-29T13:10:58;3.05;;;0.80;;
35693;SDS011;21812;55.536;37.664;2023-05-29T13:13:24;3.95;;;0.90;;
35693;SDS011;21812;55.536;37.664;2023-05-29T13:15:49;4.82;;;1.15;;
35693;SDS011;21812;55.536;37.664;2023-05-29T13:18:15;2.35;;;1.23;;
35693;SDS011;21812;55.536;37.664;2023-05-29T13:20:41;3.50;;;1.17;;
35693;SDS011;21812;55.536;37.664;2023-05-29T13:23:07;1.83;;;1.40;;
35693;SDS011;21812;55.536;37.664;2023-05-29T13:25:34;4.75;;;1.13;;
35693;SDS011;21812;55.536;37.664;2023-05-29T13:28:00;3.22;;;0.85;;
35693;SDS011;21812;55.536;37.664;2023-05-29T13:30:26;2.42;;;0.70;;
35693;SDS011;21812;55.536;37.664;2023-05-29T13:32:52;4.32;;;0.70;;
35693;SDS011;21812;55.536;37.664;2023-05-29T13:35:19;2.15;;;0.57;;
35693;SDS011;21812;55.536;37.664;2023-05-29T13:37:45;2.45;;;0.98;;
35693;SDS011;21812;55.536;37.664;2023-05-29T13:40:12;4.32;;;1.08;;
35693;SDS011;21812;55.536;37.664;2023-05-29T13:42:39;2.63;;;1.00;;
35693;SDS011;21812;55.536;37.664;2023-05-29T13:45:05;1.60;;;0.90;;
35693;SDS011;21812;55.536;37.664;2023-05-29T13:47:34;0.75;;;0.68;;
35693;SDS011;21812;55.536;37.664;2023-05-29T13:50:01;1.60;;;0.77;;
35693;SDS011;21812;55.536;37.664;2023-05-29T13:52:32;3.05;;;0.88;;
35693;SDS011;21812;55.536;37.664;2023-05-29T13:54:58;2.60;;;0.75;;
35693;SDS011;21812;55.536;37.664;2023-05-29T13:57:30;1.40;;;0.77;;
35693;SDS011;21812;55.536;37.664;2023-05-29T13:59:56;1.13;;;0.73;;
35693;SDS011;21812;55.536;37.664;2023-05-29T14:02:23;2.70;;;0.80;;
35693;SDS011;21812;55.536;37.664;2023-05-29T14:04:51;2.53;;;1.00;;
35693;SDS011;21812;55.536;37.664;2023-05-29T14:07:16;3.95;;;1.00;;
35693;SDS011;21812;55.536;37.664;2023-05-29T14:09:42;8.25;;;5.68;;
35693;SDS011;21812;55.536;37.664;2023-05-29T14:12:08;2.33;;;1.02;;
35693;SDS011;21812;55.536;37.664;2023-05-29T14:14:34;5.72;;;1.25;;
35693;SDS011;21812;55.536;37.664;2023-05-29T14:17:00;2.03;;;1.02;;
35693;SDS011;21812;55.536;37.664;2023-05-29T14:19:26;1.73;;;1.08;;
35693;SDS011;21812;55.536;37.664;2023-05-29T14:21:51;1.75;;;1.50;;
35693;SDS011;21812;55.536;37.664;2023-05-29T14:24:17;3.17;;;1.50;;
35693;SDS011;21812;55.536;37.664;2023-05-29T14:26:44;2.38;;;1.25;;
35693;SDS011;21812;55.536;37.664;2023-05-29T14:29:13;8.23;;;1.55;;
35693;SDS011;21812;55.536;37.664;2023-05-29T14:31:40;2.90;;;1.30;;
35693;SDS011;21812;55.536;37.664;2023-05-29T14:34:07;2.42;;;1.17;;
35693;SDS011;21812;55.536;37.664;2023-05-29T14:36:33;2.35;;;1.35;;
35693;SDS011;21812;55.536;37.664;2023-05-29T14:38:59;5.13;;;1.00;;
35693;SDS011;21812;55.536;37.664;2023-05-29T14:41:24;3.45;;;0.80;;
35693;SDS011;21812;55.536;37.664;2023-05-29T14:43:51;0.95;;;0.80;;
35693;SDS011;21812;55.536;37.664;2023-05-29T14:46:17;2.35;;;1.30;;
35693;SDS011;21812;55.536;37.664;2023-05-29T14:48:43;1.30;;;0.68;;
35693;SDS011;21812;55.536;37.664;2023-05-29T14:51:09;4.97;;;1.00;;
35693;SDS011;21812;55.536;37.664;2023-05-29T14:53:36;2.60;;;0.95;;
35693;SDS011;21812;55.536;37.664;2023-05-29T14:56:01;2.80;;;0.90;;
35693;SDS011;21812;55.536;37.664;2023-05-29T14:58:27;1.55;;;0.88;;
35693;SDS011;21812;55.536;37.664;2023-05-29T15:00:53;2.30;;;1.23;;
35693;SDS011;21812;55.536;37.664;2023-05-29T15:03:19;1.05;;;0.77;;
35693;SDS011;21812;55.536;37.664;2023-05-29T15:05:45;1.00;;;0.88;;
35693;SDS011;21812;55.536;37.664;2023-05-29T15:08:11;1.60;;;0.80;;
35693;SDS011;21812;55.536;37.664;2023-05-29T15:10:37;6.82;;;1.02;;
35693;SDS011;21812;55.536;37.664;2023-05-29T15:13:03;2.50;;;0.82;;
35693;SDS011;21812;55.536;37.664;2023-05-29T15:15:32;2.85;;;0.90;;
35693;SDS011;21812;55.536;37.664;2023-05-29T15:17:57;25.15;;;2.10;;
35693;SDS011;21812;55.536;37.664;2023-05-29T15:20:24;2.65;;;1.13;;
35693;SDS011;21812;55.536;37.664;2023-05-29T15:22:50;4.00;;;1.30;;
35693;SDS011;21812;55.536;37.664;2023-05-29T15:25:18;4.05;;;1.52;;